Terminal Aerodrome Forecast
Issued by NWS

Current Version | Previous Version | Text Only | Print | Product List | Glossary Off
Versions: 1 2 3 4 5 6 7 8 9 10 11 12 13 14 15 16 17 18 19 20 21 22 23

000
FTUS41 KRLX 102320
TAFCKB
TAF
KCKB 102320Z 1100/1124 22006KT P6SM BKN090
     FM110600 24009G15KT P6SM OVC040
     FM110800 25008KT P6SM BKN030
     FM111600 21007KT P6SM BKN050
     FM112100 21003KT P6SM BKN090=

USA.gov is the U.S. government's official web portal to all federal, state and local government web resources and services.